createdAt,value
2019-03-05T00:00:45.151Z,66.50
2019-03-05T00:03:14.061Z,66.30
2019-03-05T00:05:40.230Z,67.00
2019-03-05T00:08:06.530Z,67.20
2019-03-05T00:10:32.727Z,67.10
2019-03-05T00:12:58.969Z,66.70
2019-03-05T00:15:27.259Z,66.70
2019-03-05T00:17:53.653Z,66.90
2019-03-05T00:20:20.881Z,67.10
2019-03-05T00:22:47.061Z,67.40
2019-03-05T00:25:19.571Z,67.20
2019-03-05T00:27:49.636Z,67.30
2019-03-05T00:30:37.792Z,67.30
2019-03-05T00:33:16.810Z,67.50
2019-03-05T00:35:49.458Z,67.50
2019-03-05T00:38:22.275Z,67.80
2019-03-05T00:41:04.108Z,67.50
2019-03-05T00:43:36.913Z,67.60
2019-03-05T00:46:19.341Z,67.90
2019-03-05T00:48:52.471Z,67.90
2019-03-05T00:51:37.026Z,67.60
2019-03-05T00:54:12.346Z,67.60
2019-03-05T00:57:03.675Z,67.70
2019-03-05T00:59:36.376Z,67.40
2019-03-05T01:02:21.798Z,67.40
2019-03-05T01:05:03.789Z,67.40
2019-03-05T01:07:30.083Z,67.10
2019-03-05T01:09:56.445Z,67.20
2019-03-05T01:12:25.340Z,67.30
2019-03-05T01:14:52.008Z,67.20
2019-03-05T01:17:18.383Z,66.90
2019-03-05T01:19:44.574Z,66.50
2019-03-05T01:22:10.849Z,66.90
2019-03-05T01:24:37.031Z,67.60
2019-03-05T01:27:03.320Z,68.40
2019-03-05T01:29:29.493Z,69.10
2019-03-05T01:31:57.574Z,69.30
2019-03-05T01:34:25.674Z,69.90
2019-03-05T01:36:56.375Z,70.40
2019-03-05T01:39:24.453Z,70.10
2019-03-05T01:41:50.622Z,70.60
2019-03-05T01:44:16.796Z,69.60
2019-03-05T01:46:42.980Z,69.20
2019-03-05T01:49:09.155Z,69.10
2019-03-05T01:51:35.340Z,68.60
2019-03-05T01:54:01.533Z,69.00
2019-03-05T01:56:30.259Z,68.60
2019-03-05T01:58:56.435Z,68.60
2019-03-05T02:01:25.499Z,67.60
2019-03-05T02:03:51.661Z,67.50
2019-03-05T02:06:19.029Z,67.90
2019-03-05T02:08:45.205Z,68.30
2019-03-05T02:11:17.623Z,67.20
2019-03-05T02:13:47.017Z,66.80
2019-03-05T02:16:13.184Z,66.20
2019-03-05T02:18:39.371Z,67.00
2019-03-05T02:21:11.645Z,66.50
2019-03-05T02:23:50.648Z,66.40
2019-03-05T02:26:41.610Z,66.20
2019-03-05T02:29:23.449Z,66.40
2019-03-05T02:32:17.897Z,65.70
2019-03-05T02:34:59.575Z,66.10
2019-03-05T02:37:32.369Z,66.10
2019-03-05T02:40:14.888Z,65.90
2019-03-05T02:42:50.927Z,66.10
2019-03-05T02:45:39.127Z,66.10
2019-03-05T02:48:21.500Z,65.70
2019-03-05T02:51:17.117Z,66.00
2019-03-05T02:54:04.990Z,65.60
2019-03-05T02:56:51.371Z,65.50
2019-03-05T02:59:19.053Z,64.60
2019-03-05T03:01:47.121Z,65.20
2019-03-05T03:04:20.751Z,64.90
2019-03-05T03:06:47.419Z,65.00
2019-03-05T03:09:29.683Z,64.70
2019-03-05T03:11:55.863Z,64.70
2019-03-05T03:14:22.037Z,64.60
2019-03-05T03:16:48.195Z,64.80
2019-03-05T03:19:14.391Z,65.00
2019-03-05T03:21:43.121Z,65.00
2019-03-05T03:24:09.319Z,65.30
2019-03-05T03:26:35.526Z,64.30
2019-03-05T03:29:01.728Z,64.90
2019-03-05T03:31:27.994Z,65.30
2019-03-05T03:33:54.174Z,65.40
2019-03-05T03:36:20.328Z,65.50
2019-03-05T03:38:46.596Z,65.30
2019-03-05T03:41:12.773Z,65.30
2019-03-05T03:43:38.937Z,65.40
2019-03-05T03:46:07.741Z,65.30
2019-03-05T03:48:33.900Z,65.20
2019-03-05T03:51:00.074Z,65.30
2019-03-05T03:53:26.306Z,65.30
2019-03-05T03:55:52.483Z,65.30
2019-03-05T03:58:18.646Z,65.10
2019-03-05T04:00:45.029Z,64.90
2019-03-05T04:03:11.283Z,65.00
2019-03-05T04:05:37.469Z,65.00
2019-03-05T04:08:03.789Z,65.10
2019-03-05T04:10:29.951Z,65.40
2019-03-05T04:12:56.130Z,65.10
2019-03-05T04:15:22.287Z,65.00
2019-03-05T04:17:48.544Z,65.40
2019-03-05T04:20:17.624Z,65.40
2019-03-05T04:22:43.774Z,65.80
2019-03-05T04:25:12.763Z,65.70
2019-03-05T04:27:38.925Z,65.60
2019-03-05T04:30:13.372Z,65.40
2019-03-05T04:32:39.554Z,65.40
2019-03-05T04:35:09.338Z,65.30
2019-03-05T04:37:35.486Z,65.10
2019-03-05T04:40:06.977Z,65.50
2019-03-05T04:42:33.134Z,65.60
2019-03-05T04:45:01.313Z,66.00
2019-03-05T04:47:27.481Z,66.50
2019-03-05T04:49:58.288Z,66.40
2019-03-05T04:52:24.669Z,66.50
2019-03-05T04:54:50.834Z,66.30
2019-03-05T04:57:17.001Z,66.00
2019-03-05T04:59:43.200Z,66.00
2019-03-05T05:02:09.674Z,66.10
2019-03-05T05:04:35.845Z,65.90
2019-03-05T05:07:04.646Z,68.80
2019-03-05T05:09:30.841Z,71.20
2019-03-05T05:11:57.013Z,72.70
2019-03-05T05:14:23.193Z,73.40
2019-03-05T05:16:49.368Z,74.30
2019-03-05T05:19:15.533Z,75.20
2019-03-05T05:21:44.513Z,75.50
2019-03-05T05:24:10.678Z,76.00
2019-03-05T05:26:36.854Z,75.40
2019-03-05T05:29:03.018Z,75.70
2019-03-05T05:31:29.184Z,75.80
2019-03-05T05:33:55.346Z,75.60
2019-03-05T05:36:27.592Z,76.10
2019-03-05T05:38:56.341Z,76.20
2019-03-05T05:41:22.519Z,76.30
2019-03-05T05:43:48.770Z,76.80
2019-03-05T05:46:15.056Z,76.40
2019-03-05T05:48:41.229Z,76.70
2019-03-05T05:51:07.400Z,76.70
2019-03-05T05:53:33.556Z,77.10
2019-03-05T05:55:59.817Z,77.60
2019-03-05T05:58:26.024Z,77.30
2019-03-05T06:00:54.182Z,76.70
2019-03-05T06:03:20.366Z,76.70
2019-03-05T06:05:46.602Z,76.50
2019-03-05T06:08:12.787Z,77.30
2019-03-05T06:10:39.006Z,77.10
2019-03-05T06:13:05.168Z,77.60
2019-03-05T06:15:31.341Z,77.10
2019-03-05T06:17:57.579Z,77.50
2019-03-05T06:20:23.741Z,77.60
2019-03-05T06:22:49.913Z,77.50
2019-03-05T06:25:16.109Z,77.90
2019-03-05T06:27:42.340Z,78.40
2019-03-05T06:30:16.836Z,78.40
2019-03-05T06:32:45.870Z,78.50
2019-03-05T06:35:12.338Z,78.80
2019-03-05T06:37:53.831Z,78.70
2019-03-05T06:40:28.903Z,78.50
2019-03-05T06:43:04.226Z,78.40
2019-03-05T06:45:33.115Z,78.10
2019-03-05T06:48:08.730Z,78.20
2019-03-05T06:50:34.885Z,78.70
2019-03-05T06:53:01.049Z,78.80
2019-03-05T06:55:27.205Z,77.90
2019-03-05T06:57:53.475Z,78.00
2019-03-05T07:00:34.614Z,78.00
2019-03-05T07:03:01.588Z,77.60
2019-03-05T07:06:23.576Z,77.40
2019-03-05T07:08:56.458Z,77.30
2019-03-05T07:11:29.381Z,78.00
2019-03-05T07:13:59.424Z,78.60
2019-03-05T07:16:38.442Z,78.70
2019-03-05T07:19:07.568Z,78.80
2019-03-05T07:22:02.303Z,78.70
2019-03-05T07:24:41.327Z,78.70
2019-03-05T07:27:27.149Z,78.80
2019-03-05T07:29:56.663Z,80.00
2019-03-05T07:32:25.577Z,80.50
2019-03-05T07:34:51.865Z,80.40
2019-03-05T07:37:18.039Z,79.90
2019-03-05T07:39:47.305Z,78.80
2019-03-05T07:42:16.200Z,78.00
2019-03-05T07:44:42.487Z,78.20
2019-03-05T07:47:08.792Z,78.20
2019-03-05T07:49:43.173Z,78.40
2019-03-05T07:52:03.123Z,77.50
2019-03-05T07:54:29.388Z,77.60
2019-03-05T07:56:58.453Z,77.20
2019-03-05T07:59:24.841Z,76.60
2019-03-05T08:01:53.960Z,77.40
2019-03-05T08:04:38.736Z,76.50
2019-03-05T08:07:04.999Z,76.30
2019-03-05T08:09:36.756Z,76.90
2019-03-05T08:12:24.657Z,76.20
2019-03-05T08:14:59.885Z,76.60
2019-03-05T08:17:46.890Z,76.30
2019-03-05T08:20:13.155Z,77.00
2019-03-05T08:22:42.311Z,77.80
2019-03-05T08:25:10.485Z,77.20
2019-03-05T08:27:36.751Z,75.70
2019-03-05T08:30:14.173Z,73.90
2019-03-05T08:32:34.875Z,75.10
2019-03-05T08:35:01.034Z,76.00
2019-03-05T08:37:27.223Z,75.50
2019-03-05T08:39:53.380Z,74.60
2019-03-05T08:42:19.547Z,76.40
2019-03-05T08:44:50.354Z,76.70
2019-03-05T08:47:13.894Z,76.50
2019-03-05T08:49:42.729Z,76.50
2019-03-05T08:52:11.477Z,75.10
2019-03-05T08:54:37.686Z,73.50
2019-03-05T08:57:03.987Z,71.50
2019-03-05T08:59:32.531Z,71.20
2019-03-05T09:01:58.379Z,71.40
2019-03-05T09:04:24.630Z,73.90
2019-03-05T09:06:53.636Z,73.10
2019-03-05T09:09:20.068Z,73.40
2019-03-05T09:12:04.714Z,72.10
2019-03-05T09:14:30.871Z,71.30
2019-03-05T09:16:57.024Z,71.00
2019-03-05T09:19:35.296Z,72.30
2019-03-05T09:22:01.444Z,71.80
2019-03-05T09:24:27.635Z,71.70
2019-03-05T09:26:53.864Z,70.60
2019-03-05T09:29:20.200Z,71.70
2019-03-05T09:31:46.356Z,71.70
2019-03-05T09:34:12.545Z,71.50
2019-03-05T09:36:49.998Z,72.00
2019-03-05T09:39:09.226Z,72.40
2019-03-05T09:41:47.839Z,73.10
2019-03-05T09:44:14.060Z,73.30
2019-03-05T09:46:42.889Z,73.40
2019-03-05T09:49:09.152Z,73.60
2019-03-05T09:51:38.309Z,70.60
2019-03-05T09:54:04.600Z,68.20
2019-03-05T09:56:49.254Z,68.20
2019-03-05T09:59:15.422Z,67.40
2019-03-05T10:01:41.967Z,67.50
2019-03-05T10:04:11.031Z,66.80
2019-03-05T10:06:55.629Z,64.70
2019-03-05T10:09:21.829Z,65.60
2019-03-05T10:11:48.217Z,66.00
2019-03-05T10:14:14.457Z,63.90
2019-03-05T10:16:40.606Z,64.10
2019-03-05T10:19:07.007Z,63.00
2019-03-05T10:21:45.903Z,64.20
2019-03-05T10:24:10.529Z,64.90
2019-03-05T10:26:47.343Z,66.00
2019-03-05T10:29:13.541Z,66.40
2019-03-05T10:31:40.135Z,66.20
2019-03-05T10:34:06.323Z,65.20
2019-03-05T10:36:32.615Z,66.20
2019-03-05T10:38:58.797Z,66.10
2019-03-05T10:41:40.204Z,67.80
2019-03-05T10:44:06.363Z,68.80
2019-03-05T10:46:32.543Z,67.40
2019-03-05T10:48:58.718Z,66.50
2019-03-05T10:51:25.168Z,65.20
2019-03-05T10:53:53.972Z,66.00
2019-03-05T10:56:20.348Z,67.20
2019-03-05T10:58:49.484Z,66.90
2019-03-05T11:01:18.200Z,66.70
2019-03-05T11:03:44.383Z,67.50
2019-03-05T11:06:13.410Z,67.10
2019-03-05T11:08:39.636Z,67.90
2019-03-05T11:11:13.633Z,69.00
2019-03-05T11:13:36.746Z,66.00
2019-03-05T11:16:04.152Z,65.10
2019-03-05T11:18:30.503Z,63.70
2019-03-05T11:20:57.156Z,66.30
2019-03-05T11:23:32.725Z,66.30
2019-03-05T11:26:00.875Z,65.10
2019-03-05T11:28:27.149Z,61.70
2019-03-05T11:30:53.502Z,60.50
2019-03-05T11:33:20.053Z,60.40
2019-03-05T11:35:48.950Z,62.30
2019-03-05T11:38:18.410Z,62.20
2019-03-05T11:40:50.858Z,61.00
2019-03-05T11:43:17.567Z,61.80
2019-03-05T11:45:44.446Z,63.60
2019-03-05T11:48:11.385Z,65.10
2019-03-05T11:51:07.465Z,59.60
2019-03-05T11:53:33.652Z,62.90
2019-03-05T11:55:59.870Z,60.50
2019-03-05T11:58:26.108Z,57.10
2019-03-05T12:01:00.020Z,57.70
2019-03-05T12:03:26.273Z,56.50
2019-03-05T12:05:52.449Z,57.80
2019-03-05T12:08:18.799Z,58.00
2019-03-05T12:10:47.909Z,58.60
2019-03-05T12:13:17.493Z,58.70
2019-03-05T12:15:46.384Z,59.10
2019-03-05T12:18:12.637Z,59.50
2019-03-05T12:20:38.796Z,59.90
2019-03-05T12:23:09.874Z,60.00
2019-03-05T12:26:08.702Z,58.30
2019-03-05T12:28:34.860Z,58.30
2019-03-05T12:31:01.141Z,58.90
2019-03-05T12:33:27.365Z,59.30
2019-03-05T12:35:53.546Z,56.30
2019-03-05T12:38:20.041Z,54.40
2019-03-05T12:40:46.203Z,58.00
2019-03-05T12:43:12.393Z,58.70
2019-03-05T12:45:38.580Z,58.20
2019-03-05T12:48:04.844Z,58.40
2019-03-05T12:50:35.887Z,58.10
2019-03-05T12:53:02.356Z,58.60
2019-03-05T12:55:28.552Z,58.80
2019-03-05T12:57:54.723Z,58.80
2019-03-05T13:00:22.894Z,57.40
2019-03-05T13:02:50.006Z,53.90
2019-03-05T13:05:16.301Z,57.10
2019-03-05T13:07:45.156Z,54.60
2019-03-05T13:10:36.032Z,55.00
2019-03-05T13:13:02.951Z,55.50
2019-03-05T13:15:39.309Z,54.90
2019-03-05T13:18:05.654Z,56.00
2019-03-05T13:20:43.970Z,55.10
2019-03-05T13:23:10.840Z,56.60
2019-03-05T13:25:38.401Z,56.20
2019-03-05T13:28:04.749Z,56.00
2019-03-05T13:30:31.518Z,53.00
2019-03-05T13:33:09.472Z,49.50
2019-03-05T13:35:54.328Z,49.40
2019-03-05T13:38:20.572Z,50.30
2019-03-05T13:40:46.743Z,50.60
2019-03-05T13:43:13.061Z,52.00
2019-03-05T13:45:50.238Z,52.00
2019-03-05T13:48:39.219Z,50.90
2019-03-05T13:51:12.320Z,51.10
2019-03-05T13:54:00.914Z,52.20
2019-03-05T13:56:42.313Z,52.70
2019-03-05T13:59:15.583Z,53.70
2019-03-05T14:01:41.800Z,49.30
2019-03-05T14:04:11.690Z,46.60
2019-03-05T14:07:08.912Z,45.60
2019-03-05T14:09:53.566Z,42.00
2019-03-05T14:12:19.876Z,37.40
2019-03-05T14:14:48.879Z,41.40
2019-03-05T14:17:17.065Z,40.40
2019-03-05T14:19:43.364Z,43.90
2019-03-05T14:22:09.643Z,43.60
2019-03-05T14:24:35.806Z,44.30
2019-03-05T14:27:02.079Z,46.20
2019-03-05T14:29:29.406Z,46.70
2019-03-05T14:31:58.578Z,47.30
2019-03-05T14:34:24.885Z,48.30
2019-03-05T14:36:54.004Z,49.40
2019-03-05T14:39:27.171Z,48.40
2019-03-05T14:41:53.822Z,50.50
2019-03-05T14:44:20.532Z,53.80
2019-03-05T14:46:55.381Z,49.50
2019-03-05T14:49:21.839Z,40.30
2019-03-05T14:51:48.226Z,37.60
2019-03-05T14:54:18.232Z,39.10
2019-03-05T14:57:03.191Z,37.50
2019-03-05T14:59:47.961Z,40.50
2019-03-05T15:02:14.274Z,44.60
2019-03-05T15:04:40.636Z,48.70
2019-03-05T15:07:09.624Z,46.20
2019-03-05T15:09:36.088Z,45.60
2019-03-05T15:12:02.681Z,45.70
2019-03-05T15:14:47.782Z,47.70
2019-03-05T15:17:32.957Z,48.10
2019-03-05T15:20:17.980Z,47.80
2019-03-05T15:23:03.259Z,47.80
2019-03-05T15:25:45.147Z,47.80
2019-03-05T15:28:11.468Z,47.60
2019-03-05T15:30:37.724Z,47.90
2019-03-05T15:33:03.939Z,48.40
2019-03-05T15:35:30.125Z,48.50
2019-03-05T15:37:56.426Z,48.70
2019-03-05T15:40:25.474Z,49.00
2019-03-05T15:43:10.975Z,49.30
2019-03-05T15:45:56.696Z,49.60
2019-03-05T15:48:23.079Z,50.50
2019-03-05T15:51:08.047Z,49.50
2019-03-05T15:53:53.287Z,49.50
2019-03-05T15:56:19.764Z,49.50
2019-03-05T15:59:04.452Z,49.30
2019-03-05T16:01:30.752Z,48.20
2019-03-05T16:03:56.920Z,49.30
2019-03-05T16:06:23.131Z,49.70
2019-03-05T16:08:49.353Z,50.30
2019-03-05T16:11:15.793Z,50.10
2019-03-05T16:14:00.769Z,50.60
2019-03-05T16:16:27.004Z,50.30
2019-03-05T16:19:12.452Z,49.70
2019-03-05T16:21:57.979Z,49.20
2019-03-05T16:24:24.151Z,49.50
2019-03-05T16:27:09.490Z,50.60
2019-03-05T16:29:35.745Z,50.80
2019-03-05T16:32:23.115Z,51.20
2019-03-05T16:34:58.199Z,51.60
2019-03-05T16:37:26.329Z,51.60
2019-03-05T16:39:54.394Z,52.20
2019-03-05T16:42:33.829Z,52.00
2019-03-05T16:45:04.917Z,51.90
2019-03-05T16:47:47.913Z,52.30
2019-03-05T16:50:18.936Z,52.30
2019-03-05T16:52:49.610Z,52.60
2019-03-05T16:55:44.863Z,52.90
2019-03-05T16:58:31.620Z,52.80
2019-03-05T17:01:32.791Z,52.70
2019-03-05T17:04:01.326Z,53.20
2019-03-05T17:06:29.416Z,53.20
2019-03-05T17:08:57.574Z,53.40
2019-03-05T17:11:34.806Z,53.40
2019-03-05T17:14:19.776Z,53.50
2019-03-05T17:16:45.944Z,53.50
2019-03-05T17:19:12.192Z,53.50
2019-03-05T17:21:38.382Z,53.70
2019-03-05T17:24:07.641Z,53.70
2019-03-05T17:26:33.971Z,54.40
2019-03-05T17:29:15.497Z,53.60
2019-03-05T17:31:41.931Z,54.00
2019-03-05T17:34:08.138Z,54.30
2019-03-05T17:36:37.172Z,54.60
2019-03-05T17:39:05.052Z,54.20
2019-03-05T17:41:43.493Z,54.50
2019-03-05T17:44:28.100Z,54.40
2019-03-05T17:46:54.292Z,54.60
2019-03-05T17:49:20.491Z,54.70
2019-03-05T17:51:46.663Z,54.90
2019-03-05T17:54:15.732Z,55.00
2019-03-05T17:56:41.910Z,55.20
2019-03-05T17:59:11.001Z,55.10
2019-03-05T18:01:37.440Z,55.10
2019-03-05T18:04:22.603Z,55.20
2019-03-05T18:06:48.879Z,55.40
2019-03-05T18:09:18.173Z,55.70
2019-03-05T18:11:47.142Z,55.60
2019-03-05T18:14:13.413Z,55.70
2019-03-05T18:16:39.625Z,55.70
2019-03-05T18:19:24.810Z,55.80
2019-03-05T18:21:53.569Z,56.00
2019-03-05T18:24:19.885Z,56.00
2019-03-05T18:26:46.120Z,56.10
2019-03-05T18:29:12.295Z,56.10
2019-03-05T18:31:38.491Z,56.30
2019-03-05T18:34:07.510Z,56.20
2019-03-05T18:36:33.788Z,56.40
2019-03-05T18:39:00.142Z,57.30
2019-03-05T18:41:29.112Z,57.50
2019-03-05T18:43:55.305Z,57.70
2019-03-05T18:46:24.041Z,57.70
2019-03-05T18:48:50.283Z,57.70
2019-03-05T18:51:16.625Z,57.90
2019-03-05T18:53:45.817Z,57.80
2019-03-05T18:56:14.890Z,58.00
2019-03-05T18:58:41.114Z,58.10
2019-03-05T19:01:09.576Z,58.10
2019-03-05T19:03:38.377Z,58.10
2019-03-05T19:06:04.557Z,58.20
2019-03-05T19:08:30.832Z,58.40
2019-03-05T19:10:57.036Z,58.40
2019-03-05T19:13:35.825Z,58.40
2019-03-05T19:16:02.832Z,58.60
2019-03-05T19:18:29.207Z,58.80
2019-03-05T19:20:55.528Z,58.90
2019-03-05T19:23:21.737Z,59.00
2019-03-05T19:25:47.997Z,59.10
2019-03-05T19:28:14.467Z,59.00
2019-03-05T19:30:50.249Z,59.00
2019-03-05T19:33:16.448Z,59.20
2019-03-05T19:35:42.710Z,59.00
2019-03-05T19:38:09.004Z,59.10
2019-03-05T19:40:43.597Z,59.10
2019-03-05T19:43:12.636Z,59.20
2019-03-05T19:45:41.518Z,59.20
2019-03-05T19:48:07.764Z,59.10
2019-03-05T19:50:33.935Z,59.40
2019-03-05T19:53:03.143Z,59.10
2019-03-05T19:55:32.345Z,59.10
2019-03-05T19:58:07.794Z,59.00
2019-03-05T20:00:52.214Z,59.10
2019-03-05T20:03:18.542Z,59.20
2019-03-05T20:05:45.311Z,59.30
2019-03-05T20:08:14.582Z,59.30
2019-03-05T20:10:41.029Z,59.20
2019-03-05T20:13:07.214Z,59.10
2019-03-05T20:15:33.654Z,59.10
2019-03-05T20:18:02.867Z,59.80
2019-03-05T20:20:32.106Z,59.30
2019-03-05T20:23:16.787Z,59.40
2019-03-05T20:25:42.994Z,59.50
2019-03-05T20:28:09.686Z,59.60
2019-03-05T20:30:51.334Z,59.90
2019-03-05T20:33:17.583Z,60.00
2019-03-05T20:35:44.083Z,60.30
2019-03-05T20:38:28.766Z,59.70
2019-03-05T20:40:55.038Z,59.80
2019-03-05T20:43:21.242Z,60.00
2019-03-05T20:45:50.630Z,60.20
2019-03-05T20:48:17.058Z,60.20
2019-03-05T20:50:43.335Z,60.20
2019-03-05T20:53:12.074Z,60.30
2019-03-05T20:55:38.288Z,60.00
2019-03-05T20:58:04.649Z,60.10
2019-03-05T21:00:32.309Z,60.00
2019-03-05T21:03:13.835Z,60.10
2019-03-05T21:05:41.599Z,60.10
2019-03-05T21:08:23.032Z,60.20
2019-03-05T21:10:51.229Z,60.30
2019-03-05T21:13:17.637Z,60.40
2019-03-05T21:15:44.130Z,60.50
2019-03-05T21:18:18.738Z,60.60
2019-03-05T21:20:45.182Z,60.40
2019-03-05T21:23:11.571Z,60.40
2019-03-05T21:25:40.675Z,60.60
2019-03-05T21:28:06.928Z,60.70
2019-03-05T21:30:35.838Z,60.70
2019-03-05T21:33:02.237Z,60.60
2019-03-05T21:35:31.431Z,60.70
2019-03-05T21:38:00.401Z,60.80
2019-03-05T21:40:28.069Z,60.80
2019-03-05T21:43:12.950Z,61.00
2019-03-05T21:45:42.493Z,60.80
2019-03-05T21:48:11.644Z,60.80
2019-03-05T21:50:53.279Z,60.80
2019-03-05T21:53:19.959Z,61.00
2019-03-05T21:55:49.019Z,61.00
2019-03-05T21:58:30.539Z,60.90
2019-03-05T22:01:14.950Z,61.20
2019-03-05T22:03:41.227Z,61.60
2019-03-05T22:06:07.478Z,61.70
2019-03-05T22:08:33.703Z,61.70
2019-03-05T22:10:59.929Z,61.70
2019-03-05T22:13:26.233Z,61.60
2019-03-05T22:15:52.448Z,61.80
2019-03-05T22:18:18.698Z,61.70
2019-03-05T22:20:44.994Z,62.00
2019-03-05T22:23:11.295Z,62.00
2019-03-05T22:25:37.516Z,62.00
2019-03-05T22:28:03.915Z,62.00
2019-03-05T22:30:36.534Z,61.90
2019-03-05T22:33:03.442Z,62.10
2019-03-05T22:35:41.782Z,62.10
2019-03-05T22:38:07.974Z,62.40
2019-03-05T22:40:34.162Z,62.40
2019-03-05T22:43:02.939Z,62.50
2019-03-05T22:45:47.779Z,62.50
2019-03-05T22:48:13.925Z,62.50
2019-03-05T22:50:40.152Z,62.40
2019-03-05T22:53:06.342Z,62.80
2019-03-05T22:55:32.574Z,62.90
2019-03-05T22:57:58.818Z,63.00
2019-03-05T23:00:37.021Z,62.90
2019-03-05T23:03:06.080Z,62.80
2019-03-05T23:05:50.662Z,62.90
2019-03-05T23:08:19.397Z,62.80
2019-03-05T23:10:48.892Z,62.90
2019-03-05T23:13:17.842Z,63.10
2019-03-05T23:15:44.131Z,63.10
2019-03-05T23:18:13.498Z,63.30
2019-03-05T23:20:58.338Z,63.40
2019-03-05T23:23:24.848Z,63.20
2019-03-05T23:25:51.251Z,63.60
2019-03-05T23:28:31.401Z,63.80
2019-03-05T23:30:57.598Z,63.80
2019-03-05T23:33:24.189Z,63.80
2019-03-05T23:36:05.810Z,64.10
2019-03-05T23:38:35.384Z,64.10
2019-03-05T23:41:01.582Z,64.20
2019-03-05T23:43:27.953Z,64.30
2019-03-05T23:45:54.225Z,64.10
2019-03-05T23:48:20.452Z,64.40
2019-03-05T23:50:46.632Z,64.30
2019-03-05T23:53:13.228Z,64.30
2019-03-05T23:55:39.382Z,64.20
2019-03-05T23:58:05.569Z,64.10
